createdAt,value
2018-06-29T00:00:08.899Z,99.90
2018-06-29T00:02:37.874Z,99.90
2018-06-29T00:05:07.966Z,99.90
2018-06-29T00:07:36.875Z,99.90
2018-06-29T00:10:06.487Z,99.90
2018-06-29T00:12:35.457Z,99.90
2018-06-29T00:15:04.503Z,99.90
2018-06-29T00:17:33.491Z,99.90
2018-06-29T00:20:02.384Z,99.90
2018-06-29T00:22:31.318Z,99.90
2018-06-29T00:25:00.691Z,99.90
2018-06-29T00:27:29.666Z,99.90
2018-06-29T00:29:58.560Z,99.90
2018-06-29T00:32:27.539Z,99.90
2018-06-29T00:34:56.494Z,99.90
2018-06-29T00:37:25.426Z,99.90
2018-06-29T00:39:54.364Z,99.90
2018-06-29T00:42:23.815Z,99.90
2018-06-29T00:44:52.761Z,99.90
2018-06-29T00:47:21.680Z,99.90
2018-06-29T00:49:50.670Z,99.90
2018-06-29T00:52:19.636Z,99.90
2018-06-29T00:54:48.594Z,99.90
2018-06-29T00:57:17.530Z,99.90
2018-06-29T00:59:46.457Z,99.90
2018-06-29T01:02:15.353Z,99.90
2018-06-29T01:04:44.279Z,99.90
2018-06-29T01:07:13.175Z,99.90
2018-06-29T01:09:42.495Z,99.90
2018-06-29T01:12:11.439Z,99.90
2018-06-29T01:17:09.496Z,99.90
2018-06-29T01:19:38.556Z,99.90
2018-06-29T01:22:07.542Z,99.90
2018-06-29T01:24:36.467Z,99.90
2018-06-29T01:27:05.480Z,99.90
2018-06-29T01:29:34.500Z,99.90
2018-06-29T01:32:03.523Z,99.90
2018-06-29T01:34:32.446Z,99.90
2018-06-29T01:37:01.410Z,99.90
2018-06-29T01:39:30.316Z,99.90
2018-06-29T01:41:59.292Z,99.90
2018-06-29T01:44:28.204Z,99.90
2018-06-29T01:46:57.185Z,99.90
2018-06-29T01:49:26.139Z,99.90
2018-06-29T01:51:55.041Z,99.90
2018-06-29T01:54:24.017Z,99.90
2018-06-29T01:56:53.033Z,99.90
2018-06-29T01:59:21.958Z,99.90
2018-06-29T02:01:51.213Z,99.90
2018-06-29T02:04:20.236Z,99.90
2018-06-29T02:06:49.591Z,99.90
2018-06-29T02:09:18.566Z,99.90
2018-06-29T02:11:47.495Z,99.90
2018-06-29T02:14:16.422Z,99.90
2018-06-29T02:16:45.347Z,99.90
2018-06-29T02:19:14.240Z,99.90
2018-06-29T02:21:43.187Z,99.90
2018-06-29T02:24:12.094Z,99.90
2018-06-29T02:26:41.018Z,99.90
2018-06-29T02:29:09.954Z,99.90
2018-06-29T02:31:39.006Z,99.90
2018-06-29T02:34:07.919Z,99.90
2018-06-29T02:36:36.843Z,99.90
2018-06-29T02:39:09.999Z,99.90
2018-06-29T02:41:38.996Z,99.90
2018-06-29T02:44:07.942Z,99.90
2018-06-29T02:46:37.016Z,99.90
2018-06-29T02:49:06.019Z,99.90
2018-06-29T02:51:35.356Z,99.90
2018-06-29T02:56:33.977Z,99.90
2018-06-29T02:59:02.938Z,99.90
2018-06-29T03:01:31.874Z,99.90
2018-06-29T03:04:00.862Z,99.90
2018-06-29T03:06:29.801Z,99.90
2018-06-29T03:08:59.164Z,99.90
2018-06-29T03:11:28.084Z,99.90
2018-06-29T03:13:57.034Z,99.90
2018-06-29T03:16:25.931Z,99.90
2018-06-29T03:18:54.855Z,99.90
2018-06-29T03:21:23.826Z,99.90
2018-06-29T03:23:52.727Z,99.90
2018-06-29T03:26:22.190Z,99.90
2018-06-29T03:28:51.147Z,99.90
2018-06-29T03:31:20.112Z,99.90
2018-06-29T03:33:49.033Z,99.90
2018-06-29T03:36:17.973Z,99.90
2018-06-29T03:38:46.958Z,99.90
2018-06-29T03:41:15.907Z,99.90
2018-06-29T03:43:44.827Z,99.90
2018-06-29T03:46:13.806Z,99.90
2018-06-29T03:48:42.710Z,99.90
2018-06-29T03:51:11.634Z,99.90
2018-06-29T03:53:41.029Z,99.90
2018-06-29T03:56:09.966Z,99.90
2018-06-29T03:58:38.986Z,99.90
2018-06-29T04:01:07.971Z,99.90
2018-06-29T04:03:36.986Z,99.90
2018-06-29T04:06:06.479Z,99.90
2018-06-29T04:08:35.419Z,99.90
2018-06-29T04:11:04.674Z,99.90
2018-06-29T04:13:33.632Z,99.90
2018-06-29T04:16:02.528Z,99.90
2018-06-29T04:18:31.508Z,99.90
2018-06-29T04:21:00.487Z,99.90
2018-06-29T04:23:29.972Z,99.90
2018-06-29T04:25:58.903Z,99.90
2018-06-29T04:28:27.940Z,99.90
2018-06-29T04:30:56.999Z,99.90
2018-06-29T04:33:25.909Z,99.90
2018-06-29T04:35:54.867Z,99.90
2018-06-29T04:38:23.762Z,99.90
2018-06-29T04:40:52.695Z,99.90
2018-06-29T04:43:21.871Z,99.90
2018-06-29T04:45:50.869Z,99.90
2018-06-29T04:48:19.778Z,99.90
2018-06-29T04:50:48.699Z,99.90
2018-06-29T04:53:17.614Z,99.90
2018-06-29T04:55:46.534Z,99.90
2018-06-29T04:58:15.904Z,99.90
2018-06-29T05:00:44.793Z,99.90
2018-06-29T05:03:13.713Z,99.90
2018-06-29T05:05:42.838Z,99.90
2018-06-29T05:08:11.781Z,99.90
2018-06-29T05:10:40.688Z,99.90
2018-06-29T05:13:09.739Z,99.90
2018-06-29T05:15:38.724Z,99.90
2018-06-29T05:18:07.968Z,99.90
2018-06-29T05:20:36.886Z,99.90
2018-06-29T05:23:05.998Z,99.90
2018-06-29T05:25:35.179Z,99.90
2018-06-29T05:28:04.134Z,99.90
2018-06-29T05:30:33.568Z,99.90
2018-06-29T05:33:02.502Z,99.90
2018-06-29T05:35:31.576Z,99.90
2018-06-29T05:38:00.474Z,99.90
2018-06-29T05:40:29.432Z,99.90
2018-06-29T05:42:58.322Z,99.90
2018-06-29T05:45:27.653Z,99.90
2018-06-29T05:47:56.570Z,99.90
2018-06-29T05:50:25.543Z,99.50
2018-06-29T05:52:54.519Z,98.70
2018-06-29T05:55:23.439Z,98.90
2018-06-29T05:57:52.379Z,97.00
2018-06-29T06:00:21.300Z,93.00
2018-06-29T06:02:50.257Z,91.10
2018-06-29T06:05:19.160Z,87.00
2018-06-29T06:07:48.094Z,82.10
2018-06-29T06:10:16.998Z,58.30
2018-06-29T06:12:45.933Z,46.10
2018-06-29T06:15:15.323Z,36.90
2018-06-29T06:17:44.294Z,31.70
2018-06-29T06:20:15.457Z,30.30
2018-06-29T06:22:44.518Z,29.20
2018-06-29T06:25:13.500Z,27.00
2018-06-29T06:27:42.499Z,26.00
2018-06-29T06:30:11.476Z,27.00
2018-06-29T06:32:40.391Z,26.00
2018-06-29T06:35:09.854Z,25.00
2018-06-29T06:37:38.765Z,23.40
2018-06-29T06:40:07.808Z,23.10
2018-06-29T06:42:37.338Z,24.30
2018-06-29T06:45:06.661Z,24.30
2018-06-29T06:47:35.721Z,25.70
2018-06-29T06:50:04.696Z,22.50
2018-06-29T06:52:33.690Z,22.50
2018-06-29T06:55:02.568Z,24.00
2018-06-29T06:57:31.493Z,23.60
2018-06-29T07:00:00.451Z,23.50
2018-06-29T07:02:29.446Z,23.20
2018-06-29T07:04:58.388Z,22.40
2018-06-29T07:07:27.335Z,23.20
2018-06-29T07:09:56.299Z,20.50
2018-06-29T07:12:25.283Z,19.80
2018-06-29T07:14:54.258Z,18.10
2018-06-29T07:17:23.170Z,17.50
2018-06-29T07:19:52.128Z,18.40
2018-06-29T07:22:21.042Z,19.20
2018-06-29T07:24:50.034Z,21.40
2018-06-29T07:27:19.575Z,21.20
2018-06-29T07:29:48.581Z,21.50
2018-06-29T07:32:17.545Z,21.60
2018-06-29T07:34:46.462Z,21.20
2018-06-29T07:37:15.402Z,19.20
2018-06-29T07:39:44.292Z,21.30
2018-06-29T07:42:13.237Z,21.60
2018-06-29T07:44:42.146Z,21.40
2018-06-29T07:47:11.055Z,20.80
2018-06-29T07:49:40.514Z,19.60
2018-06-29T07:52:09.812Z,19.30
2018-06-29T07:54:38.707Z,20.10
2018-06-29T07:57:07.620Z,22.60
2018-06-29T07:59:36.668Z,25.50
2018-06-29T08:02:05.670Z,26.80
2018-06-29T08:04:34.619Z,25.20
2018-06-29T08:07:03.523Z,25.40
2018-06-29T08:09:32.429Z,27.60
2018-06-29T08:12:01.467Z,28.60
2018-06-29T08:14:30.406Z,25.40
2018-06-29T08:16:59.414Z,23.10
2018-06-29T08:19:28.355Z,21.30
2018-06-29T08:21:57.387Z,22.20
2018-06-29T08:24:27.280Z,21.50
2018-06-29T08:26:56.198Z,20.30
2018-06-29T08:29:25.171Z,19.30
2018-06-29T08:31:54.137Z,19.70
2018-06-29T08:34:23.031Z,19.30
2018-06-29T08:36:51.968Z,19.80
2018-06-29T08:39:20.899Z,19.80
2018-06-29T08:41:50.479Z,17.70
2018-06-29T08:44:19.444Z,18.00
2018-06-29T08:46:48.386Z,18.30
2018-06-29T08:49:17.346Z,17.60
2018-06-29T08:51:46.299Z,17.20
2018-06-29T08:54:15.183Z,17.10
2018-06-29T08:56:44.165Z,17.00
2018-06-29T08:59:13.068Z,18.20
2018-06-29T09:01:41.986Z,20.40
2018-06-29T09:04:10.952Z,20.30
2018-06-29T09:06:39.848Z,20.10
2018-06-29T09:09:09.791Z,19.30
2018-06-29T09:11:38.995Z,19.50
2018-06-29T09:14:08.443Z,18.70
2018-06-29T09:16:37.431Z,19.20
2018-06-29T09:19:06.461Z,18.70
2018-06-29T09:21:35.468Z,19.00
2018-06-29T09:24:04.477Z,18.50
2018-06-29T09:26:33.387Z,18.40
2018-06-29T09:29:02.334Z,19.70
2018-06-29T09:31:31.428Z,20.30
2018-06-29T09:34:00.328Z,21.20
2018-06-29T09:36:29.387Z,20.30
2018-06-29T09:38:58.663Z,20.80
2018-06-29T09:41:28.017Z,24.00
2018-06-29T09:43:56.926Z,24.70
2018-06-29T09:46:25.867Z,25.30
2018-06-29T09:48:54.839Z,25.80
2018-06-29T09:51:23.805Z,26.30
2018-06-29T09:53:52.708Z,26.20
2018-06-29T09:56:21.675Z,25.80
2018-06-29T09:58:50.574Z,27.20
2018-06-29T10:01:19.652Z,28.40
2018-06-29T10:03:48.531Z,29.10
2018-06-29T10:06:17.447Z,28.40
2018-06-29T10:08:46.371Z,30.00
2018-06-29T10:11:15.307Z,28.80
2018-06-29T10:13:44.233Z,28.30
2018-06-29T10:16:13.124Z,27.70
2018-06-29T10:18:42.059Z,29.60
2018-06-29T10:23:40.024Z,29.20
2018-06-29T10:26:08.936Z,30.60
2018-06-29T10:31:07.098Z,30.40
2018-06-29T10:33:36.007Z,29.40
2018-06-29T10:36:05.391Z,29.80
2018-06-29T10:38:34.277Z,30.30
2018-06-29T10:41:03.200Z,30.00
2018-06-29T10:43:32.082Z,29.50
2018-06-29T10:46:01.035Z,29.60
2018-06-29T10:48:29.941Z,30.00
2018-06-29T10:50:58.896Z,29.90
2018-06-29T10:53:28.303Z,32.80
2018-06-29T10:55:57.609Z,28.70
2018-06-29T10:58:26.484Z,28.10
2018-06-29T11:00:55.466Z,27.60
2018-06-29T11:03:24.895Z,27.70
2018-06-29T11:05:53.801Z,28.40
2018-06-29T11:08:22.761Z,28.50
2018-06-29T11:10:51.792Z,29.30
2018-06-29T11:13:20.766Z,28.80
2018-06-29T11:15:49.680Z,27.60
2018-06-29T11:18:18.634Z,26.10
2018-06-29T11:20:47.567Z,26.30
2018-06-29T11:23:16.515Z,24.90
2018-06-29T11:25:45.413Z,25.80
2018-06-29T11:28:14.381Z,25.40
2018-06-29T11:30:43.339Z,25.10
2018-06-29T11:33:12.250Z,25.90
2018-06-29T11:35:41.178Z,27.00
2018-06-29T11:40:38.700Z,25.40
2018-06-29T11:43:07.624Z,25.20
2018-06-29T11:45:36.621Z,24.30
2018-06-29T11:48:06.172Z,21.50
2018-06-29T11:50:35.126Z,21.60
2018-06-29T11:53:04.109Z,21.30
2018-06-29T11:55:33.043Z,23.70
2018-06-29T11:58:02.482Z,23.10
2018-06-29T12:00:31.498Z,22.40
2018-06-29T12:03:00.415Z,22.20
2018-06-29T12:05:29.343Z,21.50
2018-06-29T12:07:58.323Z,22.20
2018-06-29T12:10:27.219Z,21.50
2018-06-29T12:12:56.150Z,21.80
2018-06-29T12:15:25.035Z,18.00
2018-06-29T12:17:53.970Z,20.30
2018-06-29T12:20:22.881Z,20.30
2018-06-29T12:22:51.843Z,19.70
2018-06-29T12:25:21.366Z,18.90
2018-06-29T12:27:50.293Z,19.50
2018-06-29T12:30:19.203Z,20.50
2018-06-29T12:32:48.188Z,20.90
2018-06-29T12:35:17.085Z,20.40
2018-06-29T12:37:46.336Z,20.70
2018-06-29T12:40:15.428Z,22.30
2018-06-29T12:42:44.395Z,20.50
2018-06-29T12:45:13.363Z,21.10
2018-06-29T12:47:42.264Z,20.50
2018-06-29T12:50:11.234Z,21.10
2018-06-29T12:52:40.535Z,21.50
2018-06-29T12:55:09.587Z,19.70
2018-06-29T12:57:38.483Z,17.50
2018-06-29T13:02:35.976Z,17.20
2018-06-29T13:05:04.994Z,15.80
2018-06-29T13:07:33.913Z,15.20
2018-06-29T13:10:02.802Z,15.70
2018-06-29T13:12:31.836Z,13.70
2018-06-29T13:15:00.726Z,15.20
2018-06-29T13:17:29.744Z,15.70
2018-06-29T13:19:58.624Z,15.40
2018-06-29T13:22:27.535Z,15.70
2018-06-29T13:24:56.490Z,16.00
2018-06-29T13:27:25.442Z,16.00
2018-06-29T13:29:54.355Z,16.80
2018-06-29T13:32:23.399Z,16.70
2018-06-29T13:34:52.367Z,16.70
2018-06-29T13:37:21.786Z,16.10
2018-06-29T13:39:50.743Z,16.20
2018-06-29T13:42:20.510Z,17.40
2018-06-29T13:44:49.451Z,17.20
2018-06-29T13:47:18.364Z,17.60
2018-06-29T13:49:47.288Z,15.90
2018-06-29T13:52:16.325Z,16.00
2018-06-29T13:54:45.262Z,16.20
2018-06-29T13:57:15.339Z,17.30
2018-06-29T13:59:44.318Z,17.30
2018-06-29T14:02:13.272Z,17.70
2018-06-29T14:04:42.160Z,18.60
2018-06-29T14:07:11.104Z,18.60
2018-06-29T14:09:40.059Z,19.60
2018-06-29T14:12:09.030Z,20.10
2018-06-29T14:14:37.963Z,20.70
2018-06-29T14:17:07.473Z,21.00
2018-06-29T14:19:36.445Z,20.60
2018-06-29T14:22:05.380Z,19.70
2018-06-29T14:24:34.318Z,21.10
2018-06-29T14:27:03.324Z,20.80
2018-06-29T14:29:32.245Z,21.20
2018-06-29T14:32:01.199Z,21.70
2018-06-29T14:34:30.111Z,21.70
2018-06-29T14:36:59.038Z,21.60
2018-06-29T14:39:27.974Z,22.80
2018-06-29T14:41:57.362Z,23.50
2018-06-29T14:44:26.307Z,24.70
2018-06-29T14:46:55.223Z,24.80
2018-06-29T14:49:24.682Z,24.80
2018-06-29T14:51:53.670Z,25.40
2018-06-29T14:54:22.596Z,24.80
2018-06-29T14:56:51.571Z,25.10
2018-06-29T15:01:48.994Z,25.40
2018-06-29T15:04:18.043Z,24.60
2018-06-29T15:06:46.946Z,25.20
2018-06-29T15:09:15.850Z,25.70
2018-06-29T15:11:44.783Z,26.00
2018-06-29T15:14:13.689Z,25.60
2018-06-29T15:16:42.679Z,25.80
2018-06-29T15:19:11.595Z,26.80
2018-06-29T15:21:41.064Z,25.60
2018-06-29T15:24:09.974Z,25.80
2018-06-29T15:26:39.570Z,25.20
2018-06-29T15:29:08.449Z,24.60
2018-06-29T15:34:05.982Z,24.60
2018-06-29T15:36:34.933Z,24.60
2018-06-29T15:39:04.446Z,24.50
2018-06-29T15:41:33.329Z,24.30
2018-06-29T15:44:02.259Z,24.80
2018-06-29T15:46:31.171Z,25.10
2018-06-29T15:49:00.174Z,25.00
2018-06-29T15:51:29.111Z,24.50
2018-06-29T15:53:58.075Z,24.50
2018-06-29T15:56:27.431Z,24.60
2018-06-29T15:58:56.409Z,24.60
2018-06-29T16:01:25.868Z,24.30
2018-06-29T16:03:54.828Z,24.50
2018-06-29T16:06:23.741Z,23.90
2018-06-29T16:08:53.092Z,24.40
2018-06-29T16:11:22.500Z,23.90
2018-06-29T16:13:51.418Z,24.00
2018-06-29T16:16:20.344Z,23.80
2018-06-29T16:18:49.839Z,23.40
2018-06-29T16:21:18.774Z,23.20
2018-06-29T16:23:47.706Z,23.30
2018-06-29T16:26:16.642Z,22.90
2018-06-29T16:28:45.611Z,22.90
2018-06-29T16:31:14.577Z,22.80
2018-06-29T16:33:43.536Z,23.70
2018-06-29T16:36:12.479Z,24.40
2018-06-29T16:38:41.732Z,23.90
2018-06-29T16:41:10.653Z,24.60
2018-06-29T16:43:39.571Z,24.30
2018-06-29T16:46:08.656Z,24.50
2018-06-29T16:48:38.743Z,25.10
2018-06-29T16:51:08.631Z,25.80
2018-06-29T16:53:37.618Z,26.20
2018-06-29T16:56:06.549Z,26.10
2018-06-29T16:58:35.583Z,26.50
2018-06-29T17:01:04.490Z,26.00
2018-06-29T17:03:33.423Z,26.00
2018-06-29T17:06:02.355Z,25.70
2018-06-29T17:08:31.895Z,26.00
2018-06-29T17:11:00.783Z,26.50
2018-06-29T17:13:30.142Z,26.20
2018-06-29T17:15:59.122Z,26.90
2018-06-29T17:18:28.036Z,27.50
2018-06-29T17:20:56.994Z,26.70
2018-06-29T17:23:25.895Z,27.40
2018-06-29T17:25:54.794Z,27.30
2018-06-29T17:28:23.839Z,27.40
2018-06-29T17:30:52.794Z,27.40
2018-06-29T17:33:32.048Z,27.60
2018-06-29T17:35:50.698Z,28.00
2018-06-29T17:38:19.609Z,27.50
2018-06-29T17:40:48.639Z,28.40
2018-06-29T17:43:17.499Z,27.80
2018-06-29T17:45:46.450Z,27.50
2018-06-29T17:48:15.372Z,27.50
2018-06-29T17:50:44.465Z,27.10
2018-06-29T17:53:13.630Z,27.20
2018-06-29T17:55:42.729Z,28.00
2018-06-29T17:58:11.916Z,27.40
2018-06-29T18:00:41.019Z,27.60
2018-06-29T18:03:10.199Z,28.00
2018-06-29T18:05:39.449Z,28.20
2018-06-29T18:08:08.717Z,28.40
2018-06-29T18:10:38.495Z,28.60
2018-06-29T18:13:07.911Z,29.40
2018-06-29T18:15:38.015Z,29.40
2018-06-29T18:18:07.151Z,29.50
2018-06-29T18:20:36.970Z,29.70
2018-06-29T18:23:06.155Z,30.00
2018-06-29T18:25:35.367Z,30.60
2018-06-29T18:28:04.600Z,30.60
2018-06-29T18:30:33.821Z,31.00
2018-06-29T18:33:02.974Z,31.00
2018-06-29T18:38:01.080Z,31.20
2018-06-29T18:40:30.321Z,32.50
2018-06-29T18:42:59.461Z,32.00
2018-06-29T18:45:29.222Z,32.40
2018-06-29T18:47:58.478Z,32.60
2018-06-29T18:50:27.778Z,32.80
2018-06-29T18:52:57.502Z,33.30
2018-06-29T18:55:26.659Z,33.10
2018-06-29T18:57:55.710Z,33.80
2018-06-29T19:00:24.843Z,34.00
2018-06-29T19:02:53.950Z,34.20
2018-06-29T19:05:23.715Z,34.70
2018-06-29T19:07:52.857Z,34.60
2018-06-29T19:10:22.160Z,34.60
2018-06-29T19:12:52.018Z,35.10
2018-06-29T19:15:21.205Z,35.50
2018-06-29T19:17:50.478Z,35.90
2018-06-29T19:20:20.272Z,36.60
2018-06-29T19:22:49.415Z,37.60
2018-06-29T19:25:18.576Z,40.10
2018-06-29T19:27:47.752Z,45.20
2018-06-29T19:30:16.978Z,48.50
2018-06-29T19:32:45.892Z,54.30
2018-06-29T19:35:14.976Z,56.70
2018-06-29T19:37:44.840Z,59.20
2018-06-29T19:40:14.223Z,62.80
2018-06-29T19:42:43.884Z,65.70
2018-06-29T19:45:12.897Z,67.70
2018-06-29T19:47:42.043Z,69.20
2018-06-29T19:50:11.203Z,70.00
2018-06-29T19:52:40.329Z,70.70
2018-06-29T19:55:09.603Z,71.70
2018-06-29T19:57:38.917Z,72.20
2018-06-29T20:00:08.322Z,72.10
2018-06-29T20:02:37.638Z,70.50
2018-06-29T20:05:06.843Z,68.00
2018-06-29T20:07:36.084Z,66.40
2018-06-29T20:10:05.489Z,66.70
2018-06-29T20:12:34.545Z,69.10
2018-06-29T20:15:03.777Z,71.40
2018-06-29T20:17:32.955Z,71.30
2018-06-29T20:20:01.883Z,74.50
2018-06-29T20:22:31.120Z,75.30
2018-06-29T20:25:00.294Z,75.20
2018-06-29T20:27:30.123Z,73.70
2018-06-29T20:29:59.378Z,73.60
2018-06-29T20:32:29.316Z,73.80
2018-06-29T20:34:58.496Z,75.80
2018-06-29T20:37:27.626Z,75.90
2018-06-29T20:39:56.887Z,76.40
2018-06-29T20:42:26.317Z,76.00
2018-06-29T20:44:55.783Z,74.80
2018-06-29T20:47:25.001Z,75.70
2018-06-29T20:49:54.170Z,77.50
2018-06-29T20:52:23.294Z,79.60
2018-06-29T20:54:52.458Z,82.20
2018-06-29T20:57:21.365Z,84.50
2018-06-29T20:59:50.267Z,88.00
2018-06-29T21:02:19.909Z,90.00
2018-06-29T21:04:49.205Z,91.00
2018-06-29T21:09:47.217Z,93.10
2018-06-29T21:12:16.367Z,94.30
2018-06-29T21:14:45.768Z,94.90
2018-06-29T21:17:14.914Z,95.60
2018-06-29T21:19:44.209Z,96.10
2018-06-29T21:22:13.513Z,97.40
2018-06-29T21:24:42.732Z,96.90
2018-06-29T21:27:12.847Z,96.70
2018-06-29T21:29:41.795Z,96.70
2018-06-29T21:32:11.196Z,96.20
2018-06-29T21:34:41.146Z,96.20
2018-06-29T21:37:10.254Z,96.20
2018-06-29T21:39:39.587Z,96.20
2018-06-29T21:42:09.123Z,96.30
2018-06-29T21:47:07.163Z,94.00
2018-06-29T21:49:37.289Z,93.20
2018-06-29T21:52:06.420Z,92.70
2018-06-29T21:54:35.723Z,93.50
2018-06-29T21:57:05.056Z,94.00
2018-06-29T21:59:34.626Z,93.30
2018-06-29T22:02:03.826Z,93.20
2018-06-29T22:04:33.599Z,91.80
2018-06-29T22:07:02.819Z,91.40
2018-06-29T22:09:31.965Z,89.30
2018-06-29T22:12:01.182Z,89.40
2018-06-29T22:14:30.318Z,88.90
2018-06-29T22:16:59.463Z,84.90
2018-06-29T22:21:57.562Z,86.40
2018-06-29T22:24:26.918Z,85.00
2018-06-29T22:26:56.069Z,84.30
2018-06-29T22:29:25.183Z,83.20
2018-06-29T22:31:54.554Z,81.40
2018-06-29T22:34:23.778Z,80.50
2018-06-29T22:36:53.036Z,81.70
2018-06-29T22:39:22.187Z,82.40
2018-06-29T22:41:51.455Z,81.60
2018-06-29T22:44:20.649Z,83.50
2018-06-29T22:46:50.069Z,83.10
2018-06-29T22:49:18.959Z,83.40
2018-06-29T22:51:48.646Z,84.40
2018-06-29T22:54:17.940Z,85.50
2018-06-29T22:56:47.171Z,87.70
2018-06-29T22:59:16.227Z,87.80
2018-06-29T23:01:45.877Z,86.80
2018-06-29T23:04:17.325Z,86.90
2018-06-29T23:06:46.687Z,87.50
2018-06-29T23:09:15.968Z,89.50
2018-06-29T23:11:45.354Z,88.90
2018-06-29T23:14:15.027Z,89.00
2018-06-29T23:16:44.162Z,89.00
2018-06-29T23:19:13.373Z,88.50
2018-06-29T23:21:42.774Z,88.20
2018-06-29T23:24:12.003Z,86.30
2018-06-29T23:26:41.168Z,85.20
2018-06-29T23:29:10.712Z,85.40
2018-06-29T23:31:39.951Z,84.80
2018-06-29T23:34:09.176Z,84.10
2018-06-29T23:36:38.334Z,83.30
2018-06-29T23:39:09.161Z,85.00
2018-06-29T23:41:38.415Z,84.20
2018-06-29T23:44:07.784Z,82.30
2018-06-29T23:46:37.186Z,82.80
2018-06-29T23:49:06.487Z,83.80
2018-06-29T23:51:35.676Z,84.00
2018-06-29T23:54:04.919Z,82.20
2018-06-29T23:56:34.082Z,84.80
2018-06-29T23:59:03.473Z,85.00
